Terminal Aerodrome Forecast
Issued by NWS Wilmington, OH

Current Version | Previous Version | Graphics & Text | Print | Product List | Glossary On
Versions: 1 2 3 4 5 6 7 8 9 10 11 12 13 14 15 16 17 18 19 20 21 22 23 24 25
000
FTUS41 KILN 300500 RRA
TAFCMH
TAF
KCMH 300541Z 3006/3106 32010KT P6SM OVC035
      TEMPO 3006/3010 5SM -SN BR BKN015
     FM301400 33014G22KT P6SM OVC015
     FM302000 34011KT P6SM SCT250
     FM310200 32004KT P6SM SKC=

USA.gov is the U.S. government's official web portal to all federal, state and local government web resources and services.